メインページ
METAR-TAF:

METAR-TAF

空港 :

Wanaham

リフー島, ニューカレドニア

緯度: 20-46S, 経度: 167-14E, 海抜: 28m

METAR: 見つかりません

時間: 16:22 (05:22 UTC)

予報

当レポートは12時間22分前の17:00(UTC)に作成
予報は19日の 18時(UTC)から 20日の 18時(UTC)まで有効
北/北東の風 10kt
視程10km以上
高度2500ftの雲はほとんどない
高度13000ftの千切れ雲あり
19日の 18時(UTC)から 20日の 06時(UTC)まで一時的に
視程: 4000m
19日の 18時(UTC)から 19日の 21時(UTC)まで徐々に
北/北西の風 10kt
確率 30% :
19日の 21時(UTC)から 20日の 03時(UTC)まで一時的に
視程: 3000m
高度1200ftの千切れ雲あり
高度1800ftの雲は散在している, 塔状積雲.
にわか雨

TAF: NWWL 191700Z 1918/2018 03010KT 9999 FEW025 BKN130 TEMPO 1918/2006 4000 RA BECMG 1918/1921 33010KT PROB30 TEMPO 1921/2003 3000 SHRA BKN012 SCT018TCU

4,000以上の空港の気象観測と天気予報(METAR報とTAF報)

利用可能な観測所は地図上に黄色い丸と赤い丸で示す。

丸の上にカーソルを重ねると観測所名を参照できる。

次にクリックすると気象観測と天気予報を参照できる。

マップの切り替え:黒色「×」印の緑ボタンをクリックして拡大、「-」印の緑ボタンをクリックして縮小、緑色の三角印をクリックして隣りの地図に切り替え


METAR-TAF: